CheckWX is a tool to help pilots better visualize weather data.  It is not intended as a substitute for an official pre-flight weather briefing.

07:39:20 UTC

KCFJ METAR
Crawfordsville Municipal Airport
Crawfordsville, Indiana, USA
Current

24 mins ago

KCFJ 230715Z AUTO 20010G15KT 7SM RA BKN007 OVC018 20/20 A2991 RMK AO2 P0001 T01950195
Observed
Sep-23 @ 07:15 UTC
Wind
  • 200° at 10 KTS
  • Gusting to 15 KTS
Visibility
7 SM
Flight Rules
IFR
Conditions
Rain
Cloud Levels
  • Broken at 700' AGL
  • Overcast at 1,800' AGL
Temperature
20°C / 68°F
Dewpoint
20°C / 68°F
Humidity
100%
Altimeter
29.91" Hg
Pressure
1012.92 hPa
Current Rain
0.01"
Previous

44 mins ago

KCFJ 230655Z AUTO 20011G16KT 10SM -RA BKN007 OVC018 20/20 A2992 RMK AO2 P0012 T01960196
Observed
Sep-23 @ 06:55 UTC
Wind
  • 200° at 11 KTS
  • Gusting to 16 KTS
Visibility
10 SM
Flight Rules
IFR
Conditions
Light Rain
Cloud Levels
  • Broken at 700' AGL
  • Overcast at 1,800' AGL
Temperature
20°C / 68°F
Dewpoint
20°C / 68°F
Humidity
100%
Altimeter
29.92" Hg
Pressure
1013.22 hPa
Current Rain
0.12"
Previous

1 hour ago

KCFJ 230635Z AUTO 20009G14KT 5SM +RA OVC009 20/20 A2992 RMK AO2 P0008 T01980198
Observed
Sep-23 @ 06:35 UTC
Wind
  • 200° at 9 KTS
  • Gusting to 14 KTS
Visibility
5 SM
Flight Rules
IFR
Conditions
Heavy Rain
Cloud Levels
  • Overcast at 900' AGL
Temperature
20°C / 68°F
Dewpoint
20°C / 68°F
Humidity
100%
Altimeter
29.92" Hg
Pressure
1013.22 hPa
Current Rain
0.08"